sensor_id;sensor_type;location;lat;lon;timestamp;P1;durP1;ratioP1;P2;durP2;ratioP2
70165;SDS011;57541;47.408;18.822;2023-05-19T00:00:06;12.52;;;7.20;;
70165;SDS011;57541;47.408;18.822;2023-05-19T00:00:39;11.65;;;7.10;;
70165;SDS011;57541;47.408;18.822;2023-05-19T00:01:11;10.80;;;6.72;;
70165;SDS011;57541;47.408;18.822;2023-05-19T00:01:45;10.82;;;5.65;;
70165;SDS011;57541;47.408;18.822;2023-05-19T00:02:18;10.60;;;6.93;;
70165;SDS011;57541;47.408;18.822;2023-05-19T00:02:51;12.25;;;6.90;;
70165;SDS011;57541;47.408;18.822;2023-05-19T00:03:23;12.38;;;6.80;;
70165;SDS011;57541;47.408;18.822;2023-05-19T00:03:56;11.90;;;6.97;;
70165;SDS011;57541;47.408;18.822;2023-05-19T00:04:29;10.23;;;6.73;;
70165;SDS011;57541;47.408;18.822;2023-05-19T00:05:01;12.02;;;6.95;;
70165;SDS011;57541;47.408;18.822;2023-05-19T00:05:34;10.57;;;7.13;;
70165;SDS011;57541;47.408;18.822;2023-05-19T00:06:11;12.10;;;7.45;;
70165;SDS011;57541;47.408;18.822;2023-05-19T00:06:43;11.75;;;7.43;;
70165;SDS011;57541;47.408;18.822;2023-05-19T00:07:21;9.70;;;6.32;;
70165;SDS011;57541;47.408;18.822;2023-05-19T00:07:59;11.13;;;6.85;;
70165;SDS011;57541;47.408;18.822;2023-05-19T00:08:31;11.25;;;7.28;;
70165;SDS011;57541;47.408;18.822;2023-05-19T00:09:04;10.38;;;7.07;;
70165;SDS011;57541;47.408;18.822;2023-05-19T00:09:37;10.77;;;7.45;;
70165;SDS011;57541;47.408;18.822;2023-05-19T00:10:10;13.43;;;7.27;;
70165;SDS011;57541;47.408;18.822;2023-05-19T00:10:42;11.27;;;6.78;;
70165;SDS011;57541;47.408;18.822;2023-05-19T00:11:14;11.00;;;7.18;;
70165;SDS011;57541;47.408;18.822;2023-05-19T00:11:46;11.25;;;7.07;;
70165;SDS011;57541;47.408;18.822;2023-05-19T00:12:18;12.85;;;7.63;;
70165;SDS011;57541;47.408;18.822;2023-05-19T00:12:50;10.73;;;7.00;;
70165;SDS011;57541;47.408;18.822;2023-05-19T00:13:24;12.85;;;7.18;;
70165;SDS011;57541;47.408;18.822;2023-05-19T00:13:57;12.25;;;7.47;;
70165;SDS011;57541;47.408;18.822;2023-05-19T00:14:29;11.13;;;6.68;;
70165;SDS011;57541;47.408;18.822;2023-05-19T00:15:01;11.23;;;7.32;;
70165;SDS011;57541;47.408;18.822;2023-05-19T00:15:34;11.40;;;7.30;;
70165;SDS011;57541;47.408;18.822;2023-05-19T00:16:06;12.50;;;7.05;;
70165;SDS011;57541;47.408;18.822;2023-05-19T00:16:38;12.35;;;7.00;;
70165;SDS011;57541;47.408;18.822;2023-05-19T00:17:10;12.23;;;7.20;;
70165;SDS011;57541;47.408;18.822;2023-05-19T00:17:42;11.82;;;6.97;;
70165;SDS011;57541;47.408;18.822;2023-05-19T00:18:15;11.07;;;7.03;;
70165;SDS011;57541;47.408;18.822;2023-05-19T00:18:47;11.10;;;6.78;;
70165;SDS011;57541;47.408;18.822;2023-05-19T00:19:19;13.25;;;7.20;;
70165;SDS011;57541;47.408;18.822;2023-05-19T00:19:52;10.48;;;7.25;;
70165;SDS011;57541;47.408;18.822;2023-05-19T00:20:25;11.57;;;6.68;;
70165;SDS011;57541;47.408;18.822;2023-05-19T00:20:57;11.33;;;7.07;;
70165;SDS011;57541;47.408;18.822;2023-05-19T00:21:28;11.95;;;7.00;;
70165;SDS011;57541;47.408;18.822;2023-05-19T00:22:01;11.02;;;7.22;;
70165;SDS011;57541;47.408;18.822;2023-05-19T00:22:33;10.48;;;6.40;;
70165;SDS011;57541;47.408;18.822;2023-05-19T00:23:05;11.77;;;7.00;;
70165;SDS011;57541;47.408;18.822;2023-05-19T00:23:37;11.95;;;6.60;;
70165;SDS011;57541;47.408;18.822;2023-05-19T00:24:08;11.55;;;7.55;;
70165;SDS011;57541;47.408;18.822;2023-05-19T00:24:40;10.93;;;6.80;;
70165;SDS011;57541;47.408;18.822;2023-05-19T00:25:12;11.65;;;6.60;;
70165;SDS011;57541;47.408;18.822;2023-05-19T00:25:44;10.85;;;6.60;;
70165;SDS011;57541;47.408;18.822;2023-05-19T00:26:15;11.53;;;6.63;;
70165;SDS011;57541;47.408;18.822;2023-05-19T00:26:47;9.60;;;6.07;;
70165;SDS011;57541;47.408;18.822;2023-05-19T00:27:19;9.93;;;5.82;;
70165;SDS011;57541;47.408;18.822;2023-05-19T00:27:51;10.82;;;6.43;;
70165;SDS011;57541;47.408;18.822;2023-05-19T00:28:22;10.43;;;6.20;;
70165;SDS011;57541;47.408;18.822;2023-05-19T00:28:54;9.63;;;6.03;;
70165;SDS011;57541;47.408;18.822;2023-05-19T00:29:27;10.20;;;5.70;;
70165;SDS011;57541;47.408;18.822;2023-05-19T00:29:59;10.48;;;5.85;;
70165;SDS011;57541;47.408;18.822;2023-05-19T00:30:31;11.63;;;5.70;;
70165;SDS011;57541;47.408;18.822;2023-05-19T00:31:03;8.80;;;5.18;;
70165;SDS011;57541;47.408;18.822;2023-05-19T00:31:36;9.47;;;5.40;;
70165;SDS011;57541;47.408;18.822;2023-05-19T00:32:08;8.02;;;4.90;;
70165;SDS011;57541;47.408;18.822;2023-05-19T00:32:40;9.38;;;5.25;;
70165;SDS011;57541;47.408;18.822;2023-05-19T00:33:12;8.10;;;4.72;;
70165;SDS011;57541;47.408;18.822;2023-05-19T00:33:44;8.48;;;5.05;;
70165;SDS011;57541;47.408;18.822;2023-05-19T00:34:16;8.90;;;4.70;;
70165;SDS011;57541;47.408;18.822;2023-05-19T00:34:48;9.52;;;4.68;;
70165;SDS011;57541;47.408;18.822;2023-05-19T00:35:19;8.30;;;4.82;;
70165;SDS011;57541;47.408;18.822;2023-05-19T00:35:52;8.15;;;4.53;;
70165;SDS011;57541;47.408;18.822;2023-05-19T00:36:23;7.45;;;4.32;;
70165;SDS011;57541;47.408;18.822;2023-05-19T00:36:56;8.73;;;4.60;;
70165;SDS011;57541;47.408;18.822;2023-05-19T00:37:28;7.97;;;4.18;;
70165;SDS011;57541;47.408;18.822;2023-05-19T00:37:59;7.13;;;3.78;;
70165;SDS011;57541;47.408;18.822;2023-05-19T00:38:32;7.40;;;3.90;;
70165;SDS011;57541;47.408;18.822;2023-05-19T00:39:05;6.10;;;3.63;;
70165;SDS011;57541;47.408;18.822;2023-05-19T00:39:37;7.63;;;4.32;;
70165;SDS011;57541;47.408;18.822;2023-05-19T00:40:08;7.40;;;4.20;;
70165;SDS011;57541;47.408;18.822;2023-05-19T00:40:41;7.57;;;3.90;;
70165;SDS011;57541;47.408;18.822;2023-05-19T00:41:12;6.43;;;4.28;;
70165;SDS011;57541;47.408;18.822;2023-05-19T00:41:44;6.93;;;4.28;;
70165;SDS011;57541;47.408;18.822;2023-05-19T00:42:16;8.37;;;3.90;;
70165;SDS011;57541;47.408;18.822;2023-05-19T00:42:48;8.25;;;4.18;;
70165;SDS011;57541;47.408;18.822;2023-05-19T00:43:19;7.93;;;4.13;;
70165;SDS011;57541;47.408;18.822;2023-05-19T00:43:51;6.20;;;3.95;;
70165;SDS011;57541;47.408;18.822;2023-05-19T00:44:23;7.72;;;4.07;;
70165;SDS011;57541;47.408;18.822;2023-05-19T00:44:55;6.90;;;3.88;;
70165;SDS011;57541;47.408;18.822;2023-05-19T00:45:27;6.60;;;3.58;;
70165;SDS011;57541;47.408;18.822;2023-05-19T00:45:59;7.30;;;3.80;;
70165;SDS011;57541;47.408;18.822;2023-05-19T00:46:31;6.13;;;3.90;;
70165;SDS011;57541;47.408;18.822;2023-05-19T00:47:03;6.72;;;4.18;;
70165;SDS011;57541;47.408;18.822;2023-05-19T00:47:35;7.10;;;3.83;;
70165;SDS011;57541;47.408;18.822;2023-05-19T00:48:06;6.78;;;3.50;;
70165;SDS011;57541;47.408;18.822;2023-05-19T00:48:38;7.15;;;3.60;;
70165;SDS011;57541;47.408;18.822;2023-05-19T00:49:10;6.38;;;4.05;;
70165;SDS011;57541;47.408;18.822;2023-05-19T00:49:42;6.55;;;3.40;;
70165;SDS011;57541;47.408;18.822;2023-05-19T00:50:13;6.93;;;3.50;;
70165;SDS011;57541;47.408;18.822;2023-05-19T00:50:45;7.32;;;3.95;;
70165;SDS011;57541;47.408;18.822;2023-05-19T00:51:18;8.57;;;3.90;;
70165;SDS011;57541;47.408;18.822;2023-05-19T00:51:50;8.82;;;3.67;;
70165;SDS011;57541;47.408;18.822;2023-05-19T00:52:22;6.93;;;3.75;;
70165;SDS011;57541;47.408;18.822;2023-05-19T00:52:54;6.20;;;3.40;;
70165;SDS011;57541;47.408;18.822;2023-05-19T00:53:26;6.57;;;3.58;;
70165;SDS011;57541;47.408;18.822;2023-05-19T00:53:59;6.00;;;3.63;;
70165;SDS011;57541;47.408;18.822;2023-05-19T00:54:32;6.63;;;3.75;;
70165;SDS011;57541;47.408;18.822;2023-05-19T00:55:04;6.07;;;3.38;;
70165;SDS011;57541;47.408;18.822;2023-05-19T00:55:38;8.25;;;3.08;;
70165;SDS011;57541;47.408;18.822;2023-05-19T00:56:11;7.07;;;3.72;;
70165;SDS011;57541;47.408;18.822;2023-05-19T00:56:42;6.10;;;2.90;;
70165;SDS011;57541;47.408;18.822;2023-05-19T00:57:14;6.35;;;3.50;;
70165;SDS011;57541;47.408;18.822;2023-05-19T00:57:46;5.95;;;2.95;;
70165;SDS011;57541;47.408;18.822;2023-05-19T00:58:19;5.73;;;3.37;;
70165;SDS011;57541;47.408;18.822;2023-05-19T00:58:51;6.70;;;3.30;;
70165;SDS011;57541;47.408;18.822;2023-05-19T00:59:23;6.97;;;3.30;;
70165;SDS011;57541;47.408;18.822;2023-05-19T00:59:55;5.95;;;3.40;;
70165;SDS011;57541;47.408;18.822;2023-05-19T01:00:28;8.35;;;3.58;;
70165;SDS011;57541;47.408;18.822;2023-05-19T01:01:01;6.25;;;3.45;;
70165;SDS011;57541;47.408;18.822;2023-05-19T01:01:35;6.50;;;3.70;;
70165;SDS011;57541;47.408;18.822;2023-05-19T01:02:07;6.32;;;3.60;;
70165;SDS011;57541;47.408;18.822;2023-05-19T01:02:39;5.60;;;3.15;;
70165;SDS011;57541;47.408;18.822;2023-05-19T01:03:11;7.82;;;3.40;;
70165;SDS011;57541;47.408;18.822;2023-05-19T01:03:43;5.93;;;3.27;;
70165;SDS011;57541;47.408;18.822;2023-05-19T01:04:18;8.20;;;3.40;;
70165;SDS011;57541;47.408;18.822;2023-05-19T01:04:50;7.07;;;3.45;;
70165;SDS011;57541;47.408;18.822;2023-05-19T01:05:23;7.32;;;3.60;;
70165;SDS011;57541;47.408;18.822;2023-05-19T01:05:56;8.57;;;3.22;;
70165;SDS011;57541;47.408;18.822;2023-05-19T01:06:32;7.22;;;3.78;;
70165;SDS011;57541;47.408;18.822;2023-05-19T01:07:04;7.53;;;3.30;;
70165;SDS011;57541;47.408;18.822;2023-05-19T01:07:37;7.53;;;3.50;;
70165;SDS011;57541;47.408;18.822;2023-05-19T01:08:09;6.05;;;3.40;;
70165;SDS011;57541;47.408;18.822;2023-05-19T01:08:42;8.68;;;3.90;;
70165;SDS011;57541;47.408;18.822;2023-05-19T01:09:14;6.47;;;3.40;;
70165;SDS011;57541;47.408;18.822;2023-05-19T01:09:46;6.82;;;3.50;;
70165;SDS011;57541;47.408;18.822;2023-05-19T01:10:19;6.18;;;3.00;;
70165;SDS011;57541;47.408;18.822;2023-05-19T01:10:51;6.88;;;2.95;;
70165;SDS011;57541;47.408;18.822;2023-05-19T01:11:23;6.53;;;3.28;;
70165;SDS011;57541;47.408;18.822;2023-05-19T01:11:54;6.20;;;3.28;;
70165;SDS011;57541;47.408;18.822;2023-05-19T01:12:26;6.65;;;3.47;;
70165;SDS011;57541;47.408;18.822;2023-05-19T01:12:59;6.38;;;3.40;;
70165;SDS011;57541;47.408;18.822;2023-05-19T01:13:33;7.30;;;3.53;;
70165;SDS011;57541;47.408;18.822;2023-05-19T01:14:06;9.40;;;3.78;;
70165;SDS011;57541;47.408;18.822;2023-05-19T01:14:39;9.73;;;3.70;;
70165;SDS011;57541;47.408;18.822;2023-05-19T01:15:11;6.03;;;3.15;;
70165;SDS011;57541;47.408;18.822;2023-05-19T01:16:28;5.80;;;3.30;;
70165;SDS011;57541;47.408;18.822;2023-05-19T01:17:03;6.07;;;3.08;;
70165;SDS011;57541;47.408;18.822;2023-05-19T01:17:42;6.38;;;3.03;;
70165;SDS011;57541;47.408;18.822;2023-05-19T01:18:22;6.50;;;3.40;;
70165;SDS011;57541;47.408;18.822;2023-05-19T01:20:21;6.13;;;3.20;;
70165;SDS011;57541;47.408;18.822;2023-05-19T01:20:58;6.40;;;3.22;;
70165;SDS011;57541;47.408;18.822;2023-05-19T01:28:24;6.45;;;3.42;;
70165;SDS011;57541;47.408;18.822;2023-05-19T01:30:53;7.30;;;3.28;;
70165;SDS011;57541;47.408;18.822;2023-05-19T01:31:26;8.18;;;3.17;;
70165;SDS011;57541;47.408;18.822;2023-05-19T01:31:58;6.50;;;3.53;;
70165;SDS011;57541;47.408;18.822;2023-05-19T01:32:31;7.70;;;3.67;;
70165;SDS011;57541;47.408;18.822;2023-05-19T01:33:06;7.15;;;3.80;;
70165;SDS011;57541;47.408;18.822;2023-05-19T01:33:40;6.22;;;3.58;;
70165;SDS011;57541;47.408;18.822;2023-05-19T01:34:13;7.72;;;3.97;;
70165;SDS011;57541;47.408;18.822;2023-05-19T01:34:47;6.63;;;3.60;;
70165;SDS011;57541;47.408;18.822;2023-05-19T01:35:24;5.90;;;3.55;;
70165;SDS011;57541;47.408;18.822;2023-05-19T01:35:56;6.43;;;3.13;;
70165;SDS011;57541;47.408;18.822;2023-05-19T01:36:30;6.53;;;3.47;;
70165;SDS011;57541;47.408;18.822;2023-05-19T01:37:03;5.93;;;3.35;;
70165;SDS011;57541;47.408;18.822;2023-05-19T01:37:36;7.83;;;3.17;;
70165;SDS011;57541;47.408;18.822;2023-05-19T01:38:10;6.38;;;3.47;;
70165;SDS011;57541;47.408;18.822;2023-05-19T01:38:43;9.43;;;3.83;;
70165;SDS011;57541;47.408;18.822;2023-05-19T01:39:17;8.27;;;3.65;;
70165;SDS011;57541;47.408;18.822;2023-05-19T01:39:50;6.65;;;3.70;;
70165;SDS011;57541;47.408;18.822;2023-05-19T01:40:23;6.60;;;3.50;;
70165;SDS011;57541;47.408;18.822;2023-05-19T01:40:56;6.82;;;3.60;;
70165;SDS011;57541;47.408;18.822;2023-05-19T01:41:28;7.32;;;3.72;;
70165;SDS011;57541;47.408;18.822;2023-05-19T01:42:03;8.40;;;4.13;;
70165;SDS011;57541;47.408;18.822;2023-05-19T01:42:36;7.32;;;3.80;;
70165;SDS011;57541;47.408;18.822;2023-05-19T01:43:13;6.80;;;3.40;;
70165;SDS011;57541;47.408;18.822;2023-05-19T01:43:48;7.53;;;3.67;;
70165;SDS011;57541;47.408;18.822;2023-05-19T01:44:21;6.10;;;3.38;;
70165;SDS011;57541;47.408;18.822;2023-05-19T01:44:54;9.30;;;3.85;;
70165;SDS011;57541;47.408;18.822;2023-05-19T01:45:27;9.30;;;3.97;;
70165;SDS011;57541;47.408;18.822;2023-05-19T01:46:01;6.55;;;3.88;;
70165;SDS011;57541;47.408;18.822;2023-05-19T01:46:33;6.43;;;3.50;;
70165;SDS011;57541;47.408;18.822;2023-05-19T01:47:06;6.55;;;3.42;;
70165;SDS011;57541;47.408;18.822;2023-05-19T01:47:40;6.45;;;3.33;;
70165;SDS011;57541;47.408;18.822;2023-05-19T01:48:13;7.85;;;4.10;;
70165;SDS011;57541;47.408;18.822;2023-05-19T01:48:45;6.83;;;3.93;;
70165;SDS011;57541;47.408;18.822;2023-05-19T01:49:18;8.63;;;3.78;;
70165;SDS011;57541;47.408;18.822;2023-05-19T01:49:49;6.70;;;3.53;;
70165;SDS011;57541;47.408;18.822;2023-05-19T01:50:21;7.63;;;4.00;;
70165;SDS011;57541;47.408;18.822;2023-05-19T01:50:53;7.90;;;4.30;;
70165;SDS011;57541;47.408;18.822;2023-05-19T01:51:27;11.25;;;3.80;;
70165;SDS011;57541;47.408;18.822;2023-05-19T01:51:59;8.55;;;3.80;;
70165;SDS011;57541;47.408;18.822;2023-05-19T01:52:31;7.07;;;3.67;;
70165;SDS011;57541;47.408;18.822;2023-05-19T01:53:02;9.32;;;3.92;;
70165;SDS011;57541;47.408;18.822;2023-05-19T01:53:34;6.70;;;3.67;;
70165;SDS011;57541;47.408;18.822;2023-05-19T01:54:06;7.50;;;3.77;;
70165;SDS011;57541;47.408;18.822;2023-05-19T01:54:38;6.30;;;3.55;;
70165;SDS011;57541;47.408;18.822;2023-05-19T01:55:10;9.20;;;3.67;;
70165;SDS011;57541;47.408;18.822;2023-05-19T01:55:43;6.25;;;3.60;;
70165;SDS011;57541;47.408;18.822;2023-05-19T01:56:23;6.78;;;3.60;;
70165;SDS011;57541;47.408;18.822;2023-05-19T01:58:52;7.82;;;3.58;;
70165;SDS011;57541;47.408;18.822;2023-05-19T01:59:36;6.28;;;3.75;;
70165;SDS011;57541;47.408;18.822;2023-05-19T02:00:28;7.97;;;3.88;;
70165;SDS011;57541;47.408;18.822;2023-05-19T02:01:52;6.53;;;3.65;;
70165;SDS011;57541;47.408;18.822;2023-05-19T02:02:51;6.75;;;3.72;;
70165;SDS011;57541;47.408;18.822;2023-05-19T02:04:43;6.90;;;3.53;;
70165;SDS011;57541;47.408;18.822;2023-05-19T02:09:11;7.88;;;4.10;;
70165;SDS011;57541;47.408;18.822;2023-05-19T02:09:51;7.57;;;3.80;;
70165;SDS011;57541;47.408;18.822;2023-05-19T02:10:27;7.85;;;4.53;;
70165;SDS011;57541;47.408;18.822;2023-05-19T02:11:06;8.07;;;3.72;;
70165;SDS011;57541;47.408;18.822;2023-05-19T02:11:46;8.20;;;3.85;;
70165;SDS011;57541;47.408;18.822;2023-05-19T02:12:25;8.82;;;4.18;;
70165;SDS011;57541;47.408;18.822;2023-05-19T02:13:04;8.05;;;4.25;;
70165;SDS011;57541;47.408;18.822;2023-05-19T02:13:39;7.53;;;4.20;;
70165;SDS011;57541;47.408;18.822;2023-05-19T02:14:16;6.70;;;3.80;;
70165;SDS011;57541;47.408;18.822;2023-05-19T02:14:53;7.80;;;3.90;;
70165;SDS011;57541;47.408;18.822;2023-05-19T02:15:41;7.65;;;3.95;;
70165;SDS011;57541;47.408;18.822;2023-05-19T02:16:14;8.23;;;4.10;;
70165;SDS011;57541;47.408;18.822;2023-05-19T02:16:48;7.15;;;4.07;;
70165;SDS011;57541;47.408;18.822;2023-05-19T02:17:19;9.27;;;3.63;;
70165;SDS011;57541;47.408;18.822;2023-05-19T02:17:56;7.43;;;3.58;;
70165;SDS011;57541;47.408;18.822;2023-05-19T02:18:31;7.40;;;4.00;;
70165;SDS011;57541;47.408;18.822;2023-05-19T02:19:03;9.88;;;3.80;;
70165;SDS011;57541;47.408;18.822;2023-05-19T02:19:36;7.05;;;3.70;;
70165;SDS011;57541;47.408;18.822;2023-05-19T02:20:09;8.75;;;4.03;;
70165;SDS011;57541;47.408;18.822;2023-05-19T02:20:42;7.53;;;3.65;;
70165;SDS011;57541;47.408;18.822;2023-05-19T02:21:13;8.15;;;3.97;;
70165;SDS011;57541;47.408;18.822;2023-05-19T02:21:45;7.10;;;3.97;;
70165;SDS011;57541;47.408;18.822;2023-05-19T02:22:17;8.38;;;3.97;;
70165;SDS011;57541;47.408;18.822;2023-05-19T02:22:49;7.03;;;4.03;;
70165;SDS011;57541;47.408;18.822;2023-05-19T02:23:20;10.07;;;4.10;;
70165;SDS011;57541;47.408;18.822;2023-05-19T02:23:52;9.05;;;3.80;;
70165;SDS011;57541;47.408;18.822;2023-05-19T02:24:24;7.22;;;3.90;;
70165;SDS011;57541;47.408;18.822;2023-05-19T02:24:56;8.82;;;3.80;;
70165;SDS011;57541;47.408;18.822;2023-05-19T02:25:28;7.07;;;4.00;;
70165;SDS011;57541;47.408;18.822;2023-05-19T02:25:59;7.32;;;3.63;;
70165;SDS011;57541;47.408;18.822;2023-05-19T02:26:31;8.82;;;4.45;;
70165;SDS011;57541;47.408;18.822;2023-05-19T02:27:03;6.90;;;4.00;;
70165;SDS011;57541;47.408;18.822;2023-05-19T02:27:36;7.28;;;3.80;;
70165;SDS011;57541;47.408;18.822;2023-05-19T02:28:09;7.35;;;3.78;;
70165;SDS011;57541;47.408;18.822;2023-05-19T02:28:40;9.30;;;4.35;;
70165;SDS011;57541;47.408;18.822;2023-05-19T02:29:12;8.15;;;4.05;;
70165;SDS011;57541;47.408;18.822;2023-05-19T02:29:44;7.68;;;4.00;;
70165;SDS011;57541;47.408;18.822;2023-05-19T02:30:16;6.85;;;3.40;;
70165;SDS011;57541;47.408;18.822;2023-05-19T02:30:48;6.55;;;3.97;;
70165;SDS011;57541;47.408;18.822;2023-05-19T02:31:19;7.97;;;3.83;;
70165;SDS011;57541;47.408;18.822;2023-05-19T02:31:51;6.68;;;3.88;;
70165;SDS011;57541;47.408;18.822;2023-05-19T02:32:23;9.23;;;3.80;;
70165;SDS011;57541;47.408;18.822;2023-05-19T02:32:54;7.60;;;4.25;;
70165;SDS011;57541;47.408;18.822;2023-05-19T02:33:26;7.28;;;3.95;;
70165;SDS011;57541;47.408;18.822;2023-05-19T02:34:00;9.43;;;4.20;;
70165;SDS011;57541;47.408;18.822;2023-05-19T02:34:32;7.78;;;4.05;;
70165;SDS011;57541;47.408;18.822;2023-05-19T02:35:04;7.00;;;4.20;;
70165;SDS011;57541;47.408;18.822;2023-05-19T02:35:36;7.07;;;4.35;;
70165;SDS011;57541;47.408;18.822;2023-05-19T02:36:08;7.43;;;3.95;;
70165;SDS011;57541;47.408;18.822;2023-05-19T02:36:40;7.35;;;3.97;;
70165;SDS011;57541;47.408;18.822;2023-05-19T02:37:16;7.47;;;4.03;;
70165;SDS011;57541;47.408;18.822;2023-05-19T02:37:48;7.67;;;3.90;;
70165;SDS011;57541;47.408;18.822;2023-05-19T02:38:19;8.32;;;4.10;;
70165;SDS011;57541;47.408;18.822;2023-05-19T02:38:51;8.50;;;3.83;;
70165;SDS011;57541;47.408;18.822;2023-05-19T02:39:23;7.65;;;4.13;;
70165;SDS011;57541;47.408;18.822;2023-05-19T02:39:55;6.90;;;3.97;;
70165;SDS011;57541;47.408;18.822;2023-05-19T02:40:27;7.20;;;4.07;;
70165;SDS011;57541;47.408;18.822;2023-05-19T02:40:58;8.68;;;4.05;;
70165;SDS011;57541;47.408;18.822;2023-05-19T02:41:30;7.68;;;4.13;;
70165;SDS011;57541;47.408;18.822;2023-05-19T02:42:02;6.75;;;3.50;;
70165;SDS011;57541;47.408;18.822;2023-05-19T02:42:34;6.60;;;3.80;;
70165;SDS011;57541;47.408;18.822;2023-05-19T02:43:06;7.80;;;3.73;;
70165;SDS011;57541;47.408;18.822;2023-05-19T02:43:38;7.72;;;3.80;;
70165;SDS011;57541;47.408;18.822;2023-05-19T02:44:10;9.85;;;4.28;;
70165;SDS011;57541;47.408;18.822;2023-05-19T02:44:41;6.90;;;4.03;;
70165;SDS011;57541;47.408;18.822;2023-05-19T02:45:13;7.70;;;3.90;;
70165;SDS011;57541;47.408;18.822;2023-05-19T02:45:46;8.77;;;3.92;;
70165;SDS011;57541;47.408;18.822;2023-05-19T02:46:17;6.55;;;3.50;;
70165;SDS011;57541;47.408;18.822;2023-05-19T02:46:49;7.68;;;3.92;;
70165;SDS011;57541;47.408;18.822;2023-05-19T02:47:21;8.30;;;4.20;;
70165;SDS011;57541;47.408;18.822;2023-05-19T02:47:53;6.25;;;3.67;;
70165;SDS011;57541;47.408;18.822;2023-05-19T02:48:24;6.97;;;3.80;;
70165;SDS011;57541;47.408;18.822;2023-05-19T02:48:56;7.47;;;3.97;;
70165;SDS011;57541;47.408;18.822;2023-05-19T02:49:28;7.78;;;4.00;;
70165;SDS011;57541;47.408;18.822;2023-05-19T02:50:01;8.75;;;4.30;;
70165;SDS011;57541;47.408;18.822;2023-05-19T02:50:33;6.65;;;3.65;;
70165;SDS011;57541;47.408;18.822;2023-05-19T02:51:05;7.35;;;3.78;;
70165;SDS011;57541;47.408;18.822;2023-05-19T02:51:37;10.02;;;4.10;;
70165;SDS011;57541;47.408;18.822;2023-05-19T02:52:08;7.55;;;3.78;;
70165;SDS011;57541;47.408;18.822;2023-05-19T02:52:40;7.10;;;3.80;;
70165;SDS011;57541;47.408;18.822;2023-05-19T02:53:12;8.85;;;4.20;;
70165;SDS011;57541;47.408;18.822;2023-05-19T02:53:44;9.13;;;4.20;;
70165;SDS011;57541;47.408;18.822;2023-05-19T02:54:16;8.32;;;3.88;;
70165;SDS011;57541;47.408;18.822;2023-05-19T02:54:47;7.82;;;4.03;;
70165;SDS011;57541;47.408;18.822;2023-05-19T02:55:19;7.57;;;3.67;;
70165;SDS011;57541;47.408;18.822;2023-05-19T02:55:51;7.00;;;3.95;;
70165;SDS011;57541;47.408;18.822;2023-05-19T02:56:22;6.45;;;3.83;;
70165;SDS011;57541;47.408;18.822;2023-05-19T02:56:54;8.23;;;3.75;;
70165;SDS011;57541;47.408;18.822;2023-05-19T02:57:27;7.15;;;3.83;;
70165;SDS011;57541;47.408;18.822;2023-05-19T02:58:00;7.78;;;4.00;;
70165;SDS011;57541;47.408;18.822;2023-05-19T02:58:31;6.85;;;3.88;;
70165;SDS011;57541;47.408;18.822;2023-05-19T02:59:03;7.17;;;3.87;;
70165;SDS011;57541;47.408;18.822;2023-05-19T02:59:35;10.00;;;4.10;;
70165;SDS011;57541;47.408;18.822;2023-05-19T03:00:07;6.70;;;3.50;;
70165;SDS011;57541;47.408;18.822;2023-05-19T03:00:40;8.02;;;3.80;;
70165;SDS011;57541;47.408;18.822;2023-05-19T03:01:11;8.15;;;4.13;;
70165;SDS011;57541;47.408;18.822;2023-05-19T03:01:43;7.25;;;3.90;;
70165;SDS011;57541;47.408;18.822;2023-05-19T03:02:15;7.22;;;4.00;;
70165;SDS011;57541;47.408;18.822;2023-05-19T03:02:47;6.68;;;3.97;;
70165;SDS011;57541;47.408;18.822;2023-05-19T03:03:19;7.10;;;4.40;;
70165;SDS011;57541;47.408;18.822;2023-05-19T03:03:50;9.00;;;4.10;;
70165;SDS011;57541;47.408;18.822;2023-05-19T03:04:23;8.33;;;4.20;;
70165;SDS011;57541;47.408;18.822;2023-05-19T03:04:54;7.55;;;3.92;;
70165;SDS011;57541;47.408;18.822;2023-05-19T03:05:26;7.03;;;3.90;;
70165;SDS011;57541;47.408;18.822;2023-05-19T03:06:00;7.80;;;4.10;;
70165;SDS011;57541;47.408;18.822;2023-05-19T03:06:35;7.55;;;3.97;;
70165;SDS011;57541;47.408;18.822;2023-05-19T03:07:07;7.85;;;4.38;;
70165;SDS011;57541;47.408;18.822;2023-05-19T03:07:43;7.80;;;3.78;;
70165;SDS011;57541;47.408;18.822;2023-05-19T03:08:15;7.43;;;4.10;;
70165;SDS011;57541;47.408;18.822;2023-05-19T03:08:47;7.93;;;4.20;;
70165;SDS011;57541;47.408;18.822;2023-05-19T03:09:19;8.27;;;4.20;;
70165;SDS011;57541;47.408;18.822;2023-05-19T03:09:50;9.03;;;4.30;;
70165;SDS011;57541;47.408;18.822;2023-05-19T03:10:22;8.30;;;4.13;;
70165;SDS011;57541;47.408;18.822;2023-05-19T03:10:54;9.18;;;4.20;;
70165;SDS011;57541;47.408;18.822;2023-05-19T03:11:26;8.50;;;4.00;;
70165;SDS011;57541;47.408;18.822;2023-05-19T03:11:59;8.73;;;4.07;;
70165;SDS011;57541;47.408;18.822;2023-05-19T03:12:34;7.82;;;3.70;;
70165;SDS011;57541;47.408;18.822;2023-05-19T03:13:06;7.72;;;3.75;;
70165;SDS011;57541;47.408;18.822;2023-05-19T03:13:37;7.57;;;3.80;;
70165;SDS011;57541;47.408;18.822;2023-05-19T03:14:09;7.13;;;4.38;;
70165;SDS011;57541;47.408;18.822;2023-05-19T03:14:41;8.10;;;4.00;;
70165;SDS011;57541;47.408;18.822;2023-05-19T03:15:12;8.43;;;4.07;;
70165;SDS011;57541;47.408;18.822;2023-05-19T03:15:45;10.82;;;4.10;;
70165;SDS011;57541;47.408;18.822;2023-05-19T03:16:17;7.30;;;3.88;;
70165;SDS011;57541;47.408;18.822;2023-05-19T03:16:49;8.25;;;4.35;;
70165;SDS011;57541;47.408;18.822;2023-05-19T03:17:21;7.90;;;4.03;;
70165;SDS011;57541;47.408;18.822;2023-05-19T03:17:53;8.05;;;4.35;;
70165;SDS011;57541;47.408;18.822;2023-05-19T03:18:25;8.25;;;4.20;;
70165;SDS011;57541;47.408;18.822;2023-05-19T03:18:57;7.95;;;4.00;;
70165;SDS011;57541;47.408;18.822;2023-05-19T03:19:29;7.75;;;4.80;;
70165;SDS011;57541;47.408;18.822;2023-05-19T03:20:02;8.30;;;4.57;;
70165;SDS011;57541;47.408;18.822;2023-05-19T03:20:35;7.33;;;4.63;;
70165;SDS011;57541;47.408;18.822;2023-05-19T03:21:11;9.20;;;4.55;;
70165;SDS011;57541;47.408;18.822;2023-05-19T03:21:42;7.88;;;4.22;;
70165;SDS011;57541;47.408;18.822;2023-05-19T03:22:14;8.23;;;4.35;;
70165;SDS011;57541;47.408;18.822;2023-05-19T03:22:46;8.32;;;4.43;;
70165;SDS011;57541;47.408;18.822;2023-05-19T03:23:18;7.38;;;4.63;;
70165;SDS011;57541;47.408;18.822;2023-05-19T03:23:51;11.00;;;4.70;;
70165;SDS011;57541;47.408;18.822;2023-05-19T03:24:23;8.32;;;4.07;;
70165;SDS011;57541;47.408;18.822;2023-05-19T03:24:55;6.85;;;3.75;;
70165;SDS011;57541;47.408;18.822;2023-05-19T03:25:28;9.73;;;4.30;;
70165;SDS011;57541;47.408;18.822;2023-05-19T03:26:00;8.17;;;4.13;;
70165;SDS011;57541;47.408;18.822;2023-05-19T03:26:32;8.32;;;4.78;;
70165;SDS011;57541;47.408;18.822;2023-05-19T03:27:03;7.55;;;4.28;;
70165;SDS011;57541;47.408;18.822;2023-05-19T03:27:36;7.05;;;4.25;;
70165;SDS011;57541;47.408;18.822;2023-05-19T03:28:07;8.23;;;4.70;;
70165;SDS011;57541;47.408;18.822;2023-05-19T03:28:39;9.10;;;4.70;;
70165;SDS011;57541;47.408;18.822;2023-05-19T03:29:11;10.02;;;4.57;;
70165;SDS011;57541;47.408;18.822;2023-05-19T03:29:43;9.07;;;4.60;;
70165;SDS011;57541;47.408;18.822;2023-05-19T03:30:15;7.10;;;3.78;;
70165;SDS011;57541;47.408;18.822;2023-05-19T03:30:47;8.05;;;4.32;;
70165;SDS011;57541;47.408;18.822;2023-05-19T03:31:21;7.80;;;4.17;;
70165;SDS011;57541;47.408;18.822;2023-05-19T03:31:52;8.23;;;4.50;;
70165;SDS011;57541;47.408;18.822;2023-05-19T03:32:24;6.93;;;4.03;;
70165;SDS011;57541;47.408;18.822;2023-05-19T03:32:56;8.90;;;4.45;;
70165;SDS011;57541;47.408;18.822;2023-05-19T03:33:28;7.75;;;4.30;;